createdAt,value
2018-12-01T00:02:45.648Z,44.40
2018-12-01T00:06:59.285Z,28.30
2018-12-01T00:11:08.672Z,31.70
2018-12-01T00:15:23.067Z,39.67
2018-12-01T00:19:35.069Z,34.60
2018-12-01T00:23:43.162Z,40.27
2018-12-01T00:27:50.549Z,41.17
2018-12-01T00:31:58.232Z,28.70
2018-12-01T00:36:05.042Z,36.07
2018-12-01T00:40:22.068Z,38.37
2018-12-01T00:44:34.088Z,37.97
2018-12-01T00:48:42.654Z,44.50
2018-12-01T00:52:50.325Z,37.70
2018-12-01T00:56:57.246Z,30.37
2018-12-01T01:01:04.116Z,24.57
2018-12-01T01:05:12.457Z,16.67
2018-12-01T01:09:19.237Z,41.67
2018-12-01T01:13:26.942Z,25.83
2018-12-01T01:17:33.668Z,50.90
2018-12-01T01:21:42.655Z,25.90
2018-12-01T01:25:49.399Z,25.23
2018-12-01T01:29:56.413Z,37.73
2018-12-01T01:34:06.043Z,34.10
2018-12-01T01:38:13.916Z,40.00
2018-12-01T01:42:20.774Z,26.97
2018-12-01T01:46:27.998Z,34.60
2018-12-01T01:50:37.808Z,34.27
2018-12-01T01:54:45.659Z,20.60
2018-12-01T01:58:52.488Z,33.03
2018-12-01T02:02:59.470Z,31.00
2018-12-01T02:07:06.252Z,38.40
2018-12-01T02:11:13.870Z,31.70
2018-12-01T02:15:20.838Z,37.17
2018-12-01T02:19:31.343Z,20.87
2018-12-01T02:23:38.090Z,25.13
2018-12-01T02:27:46.067Z,43.27
2018-12-01T02:31:52.833Z,36.37
2018-12-01T02:36:00.283Z,40.63
2018-12-01T02:40:10.411Z,20.87
2018-12-01T02:45:10.859Z,24.93
2018-12-01T02:49:17.777Z,27.20
2018-12-01T02:53:24.858Z,22.27
2018-12-01T02:57:31.618Z,38.50
2018-12-01T03:01:39.163Z,45.13
2018-12-01T03:05:46.085Z,35.00
2018-12-01T03:09:53.201Z,38.80
2018-12-01T03:14:00.759Z,41.10
2018-12-01T03:18:08.018Z,22.17
2018-12-01T03:22:17.918Z,41.00
2018-12-01T03:26:25.439Z,30.07
2018-12-01T03:30:32.198Z,29.23
2018-12-01T03:34:40.151Z,33.13
2018-12-01T03:38:46.925Z,42.80
2018-12-01T03:42:54.711Z,35.07
2018-12-01T03:47:01.445Z,56.27
2018-12-01T03:51:09.988Z,33.77
2018-12-01T03:55:34.640Z,33.40
2018-12-01T03:59:41.589Z,36.23
2018-12-01T04:03:47.993Z,43.40
2018-12-01T04:07:55.813Z,21.07
2018-12-01T04:12:03.427Z,40.50
2018-12-01T04:16:10.498Z,33.07
2018-12-01T04:20:17.704Z,28.83
2018-12-01T04:24:24.885Z,43.17
2018-12-01T04:32:55.375Z,38.80
2018-12-01T04:37:03.389Z,33.53
2018-12-01T04:41:10.324Z,48.13
2018-12-01T04:45:17.657Z,42.30
2018-12-01T04:49:24.581Z,52.73
2018-12-01T04:53:31.770Z,34.13
2018-12-01T04:57:39.357Z,44.87
2018-12-01T05:01:46.319Z,36.17
2018-12-01T05:05:53.767Z,30.27
2018-12-01T05:10:01.649Z,38.10
2018-12-01T05:14:09.475Z,40.50
2018-12-01T05:18:16.434Z,38.27
2018-12-01T05:22:25.782Z,42.43
2018-12-01T05:26:39.163Z,38.30
2018-12-01T05:30:47.368Z,54.30
2018-12-01T05:34:54.704Z,48.63
2018-12-01T05:39:01.809Z,52.77
2018-12-01T05:43:09.612Z,37.10
2018-12-01T05:47:17.727Z,52.60
2018-12-01T05:51:25.597Z,42.00
2018-12-01T05:55:31.181Z,39.63
2018-12-01T05:59:38.122Z,52.20
2018-12-01T06:03:45.140Z,50.33
2018-12-01T06:07:52.195Z,37.20
2018-12-01T06:11:59.293Z,39.90
2018-12-01T06:16:06.325Z,47.17
2018-12-01T06:20:22.182Z,63.37
2018-12-01T06:24:30.644Z,52.33
2018-12-01T06:28:37.496Z,35.87
2018-12-01T06:32:44.842Z,43.37
2018-12-01T06:36:53.231Z,54.30
2018-12-01T06:41:00.137Z,49.13
2018-12-01T06:45:12.500Z,39.77
2018-12-01T06:49:19.474Z,49.30
2018-12-01T06:53:28.020Z,39.70
2018-12-01T06:57:35.007Z,52.57
2018-12-01T07:01:42.233Z,58.33
2018-12-01T07:05:51.011Z,53.83
2018-12-01T07:09:59.666Z,49.73
2018-12-01T07:14:07.706Z,50.53
2018-12-01T07:19:14.067Z,55.03
2018-12-01T07:23:22.154Z,55.53
2018-12-01T07:27:31.084Z,57.30
2018-12-01T07:31:41.149Z,55.97
2018-12-01T07:35:47.647Z,43.97
2018-12-01T07:39:54.675Z,54.93
2018-12-01T07:44:02.858Z,51.23
2018-12-01T07:48:10.306Z,67.17
2018-12-01T07:52:18.450Z,48.03
2018-12-01T07:56:25.366Z,52.30
2018-12-01T08:00:36.024Z,50.57
2018-12-01T08:04:43.575Z,44.37
2018-12-01T08:08:52.379Z,61.00
2018-12-01T08:13:00.604Z,61.53
2018-12-01T08:17:13.027Z,61.73
2018-12-01T08:21:24.102Z,63.77
2018-12-01T08:25:31.930Z,71.23
2018-12-01T08:30:00.925Z,69.73
2018-12-01T08:34:13.073Z,58.03
2018-12-01T08:38:24.407Z,56.80
2018-12-01T08:46:42.062Z,75.03
2018-12-01T08:50:56.892Z,71.03
2018-12-01T08:55:05.424Z,86.83
2018-12-01T08:59:16.239Z,62.23
2018-12-01T09:03:25.659Z,78.53
2018-12-01T09:07:39.143Z,65.83
2018-12-01T09:11:46.460Z,70.23
2018-12-01T09:15:56.428Z,75.33
2018-12-01T09:20:03.778Z,79.47
2018-12-01T09:24:13.074Z,90.97
2018-12-01T09:28:21.768Z,80.10
2018-12-01T09:32:30.048Z,79.73
2018-12-01T09:36:38.277Z,85.80
2018-12-01T09:40:47.127Z,86.83
2018-12-01T09:44:55.931Z,75.87
2018-12-01T09:49:02.966Z,73.73
2018-12-01T09:53:09.950Z,86.37
2018-12-01T09:57:19.900Z,81.37
2018-12-01T10:01:26.791Z,76.77
2018-12-01T10:05:44.951Z,87.77
2018-12-01T10:09:51.978Z,94.83
2018-12-01T10:14:20.704Z,86.90
2018-12-01T10:18:27.937Z,74.90
2018-12-01T10:22:36.489Z,75.03
2018-12-01T10:26:48.598Z,77.77
2018-12-01T10:30:55.934Z,96.10
2018-12-01T10:35:03.504Z,77.40
2018-12-01T10:39:11.962Z,80.97
2018-12-01T10:43:41.760Z,92.77
2018-12-01T10:47:49.208Z,73.47
2018-12-01T10:51:57.166Z,91.87
2018-12-01T10:56:06.270Z,80.73
2018-12-01T11:00:33.291Z,78.10
2018-12-01T11:04:41.816Z,80.67
2018-12-01T11:08:48.607Z,80.90
2018-12-01T11:12:56.122Z,93.33
2018-12-01T11:17:04.357Z,90.57
2018-12-01T11:21:11.858Z,78.63
2018-12-01T11:25:18.657Z,87.10
2018-12-01T11:29:30.206Z,78.03
2018-12-01T11:33:37.102Z,95.83
2018-12-01T11:37:45.429Z,99.30
2018-12-01T11:41:52.041Z,80.90
2018-12-01T11:45:59.146Z,87.33
2018-12-01T11:50:10.136Z,90.07
2018-12-01T11:54:18.809Z,91.33
2018-12-01T11:58:25.738Z,87.57
2018-12-01T12:02:32.658Z,74.77
2018-12-01T12:06:40.399Z,87.57
2018-12-01T12:10:48.148Z,84.33
2018-12-01T12:14:57.066Z,80.27
2018-12-01T12:19:04.236Z,89.17
2018-12-01T12:23:11.108Z,84.73
2018-12-01T12:27:18.025Z,83.93
2018-12-01T12:31:25.127Z,97.23
2018-12-01T12:35:32.483Z,85.33
2018-12-01T12:39:42.622Z,86.40
2018-12-01T12:43:50.702Z,86.40
2018-12-01T12:48:00.955Z,91.47
2018-12-01T12:52:08.983Z,103.53
2018-12-01T12:56:17.509Z,84.20
2018-12-01T13:04:41.555Z,104.70
2018-12-01T13:08:48.825Z,103.47
2018-12-01T13:12:57.013Z,101.17
2018-12-01T13:17:04.361Z,88.10
2018-12-01T13:21:11.323Z,111.33
2018-12-01T13:25:20.522Z,104.83
2018-12-01T13:29:28.515Z,104.10
2018-12-01T13:33:37.253Z,107.07
2018-12-01T13:37:44.240Z,106.67
2018-12-01T13:41:51.568Z,106.07
2018-12-01T13:45:58.606Z,108.13
2018-12-01T13:50:15.551Z,111.30
2018-12-01T13:54:22.619Z,98.03
2018-12-01T13:58:29.964Z,140.17
2018-12-01T14:02:37.584Z,130.63
2018-12-01T14:06:46.773Z,129.73
2018-12-01T14:10:56.779Z,208.97
2018-12-01T14:15:06.859Z,176.43
2018-12-01T14:19:15.062Z,216.30
2018-12-01T14:23:23.570Z,174.70
2018-12-01T14:27:30.691Z,164.20
2018-12-01T14:31:41.036Z,136.87
2018-12-01T14:35:48.010Z,118.23
2018-12-01T14:39:55.360Z,113.23
2018-12-01T14:44:02.379Z,107.63
2018-12-01T14:48:13.476Z,106.40
2018-12-01T14:52:23.511Z,121.27
2018-12-01T14:56:32.157Z,113.00
2018-12-01T15:00:39.473Z,117.60
2018-12-01T15:08:57.555Z,109.83
2018-12-01T15:13:05.650Z,109.77
2018-12-01T15:17:13.475Z,109.93
2018-12-01T15:21:24.432Z,138.03
2018-12-01T15:25:36.909Z,112.70
2018-12-01T15:29:45.910Z,118.70
2018-12-01T15:33:52.433Z,107.73
2018-12-01T15:38:00.419Z,141.53
2018-12-01T15:42:07.681Z,132.47
2018-12-01T15:46:15.161Z,102.50
2018-12-01T15:50:47.223Z,113.67
2018-12-01T15:54:55.361Z,131.83
2018-12-01T15:59:05.239Z,122.33
2018-12-01T16:03:13.018Z,123.43
2018-12-01T16:07:22.420Z,113.83
2018-12-01T16:11:50.694Z,121.30
2018-12-01T16:16:08.046Z,112.90
2018-12-01T16:20:16.926Z,119.10
2018-12-01T16:24:24.862Z,137.77
2018-12-01T16:28:32.065Z,133.73
2018-12-01T16:32:39.733Z,149.20
2018-12-01T16:36:49.117Z,156.37
2018-12-01T16:41:35.110Z,164.40
2018-12-01T16:45:43.749Z,160.93
2018-12-01T16:49:51.036Z,140.67
2018-12-01T16:53:58.247Z,151.80
2018-12-01T16:58:08.025Z,165.30
2018-12-01T17:02:15.074Z,173.37
2018-12-01T17:06:22.223Z,157.60
2018-12-01T17:10:32.666Z,165.17
2018-12-01T17:14:39.759Z,167.10
2018-12-01T17:18:46.953Z,169.30
2018-12-01T17:22:57.737Z,162.27
2018-12-01T17:27:07.413Z,153.57
2018-12-01T17:31:18.990Z,171.53
2018-12-01T17:35:30.748Z,146.33
2018-12-01T17:39:58.110Z,157.50
2018-12-01T17:44:17.139Z,141.10
2018-12-01T17:48:24.467Z,160.33
2018-12-01T17:52:32.374Z,174.73
2018-12-01T17:57:00.396Z,147.03
2018-12-01T18:01:09.086Z,156.27
2018-12-01T18:05:30.827Z,144.40
2018-12-01T18:09:38.291Z,164.60
2018-12-01T18:13:45.335Z,181.07
2018-12-01T18:17:58.434Z,159.47
2018-12-01T18:22:08.167Z,166.67
2018-12-01T18:26:21.286Z,175.53
2018-12-01T18:30:35.443Z,172.70
2018-12-01T18:34:45.912Z,158.63
2018-12-01T18:43:03.675Z,207.07
2018-12-01T18:47:13.147Z,200.57
2018-12-01T18:51:22.256Z,188.77
2018-12-01T18:55:57.100Z,172.43
2018-12-01T19:00:04.192Z,181.43
2018-12-01T19:04:14.122Z,188.67
2018-12-01T19:08:22.612Z,175.70
2018-12-01T19:12:31.246Z,196.73
2018-12-01T19:16:38.375Z,188.50
2018-12-01T19:20:45.236Z,185.23
2018-12-01T19:25:32.465Z,194.47
2018-12-01T19:29:40.145Z,187.33
2018-12-01T19:33:48.179Z,177.27
2018-12-01T19:37:58.128Z,180.43
2018-12-01T19:42:08.368Z,179.90
2018-12-01T19:46:15.822Z,194.00
2018-12-01T19:50:37.687Z,201.47
2018-12-01T19:54:44.690Z,181.60
2018-12-01T19:58:52.126Z,204.07
2018-12-01T20:03:06.549Z,193.27
2018-12-01T20:07:33.636Z,215.50
2018-12-01T20:16:18.968Z,224.00
2018-12-01T20:20:26.142Z,213.13
2018-12-01T20:24:35.284Z,220.23
2018-12-01T20:28:59.690Z,227.87
2018-12-01T20:33:08.556Z,228.13
2018-12-01T20:37:21.058Z,229.33
2018-12-01T20:41:29.496Z,229.13
2018-12-01T20:45:37.645Z,234.20
2018-12-01T20:49:45.196Z,232.37
2018-12-01T20:53:52.616Z,226.33
2018-12-01T20:58:23.672Z,260.33
2018-12-01T21:02:30.663Z,257.57
2018-12-01T21:06:39.489Z,226.30
2018-12-01T21:10:53.331Z,250.23
2018-12-01T21:15:21.486Z,239.93
2018-12-01T21:19:31.655Z,236.57
2018-12-01T21:23:39.927Z,229.83
2018-12-01T21:27:50.187Z,241.10
2018-12-01T21:32:00.002Z,226.93
2018-12-01T21:36:07.891Z,237.13
2018-12-01T21:40:21.397Z,237.60
2018-12-01T21:44:27.303Z,227.73
2018-12-01T21:48:34.578Z,260.10
2018-12-01T21:52:41.486Z,246.10
2018-12-01T21:56:48.415Z,242.47
2018-12-01T22:00:59.799Z,265.67
2018-12-01T22:05:47.416Z,236.83
2018-12-01T22:09:54.484Z,238.00
2018-12-01T22:14:02.720Z,242.27
2018-12-01T22:18:33.094Z,223.10
2018-12-01T22:22:40.534Z,251.20
2018-12-01T22:26:47.294Z,240.53
2018-12-01T22:31:16.543Z,235.70
2018-12-01T22:35:25.073Z,236.23
2018-12-01T22:39:32.565Z,247.87
2018-12-01T22:44:00.092Z,239.67
2018-12-01T22:48:19.488Z,256.27
2018-12-01T22:52:27.302Z,250.40
2018-12-01T22:56:37.886Z,249.97
2018-12-01T23:00:58.118Z,244.00
2018-12-01T23:05:06.493Z,245.63
2018-12-01T23:09:15.027Z,247.77
2018-12-01T23:13:22.680Z,255.60
2018-12-01T23:17:30.557Z,266.77
2018-12-01T23:21:43.336Z,257.80
2018-12-01T23:25:50.151Z,263.03
2018-12-01T23:30:00.170Z,238.53
2018-12-01T23:34:07.118Z,247.67
2018-12-01T23:38:16.345Z,279.47
2018-12-01T23:42:23.393Z,263.97
2018-12-01T23:46:34.894Z,254.20
2018-12-01T23:50:45.532Z,269.60
2018-12-01T23:54:53.500Z,275.13
2018-12-01T23:59:00.354Z,260.73
